Hlavní strana
METAR-TAF:

METAR-TAF

Letiště :

Vinnycja, Ukrajina

zeměpisná šířka: 49-14-23N, zeměpisná délka: 028-36-50E, výška: 974 m

Aktuální stav počasí

Zpráva byla vytvořena před 9 hodinami a 50 minutami, v 17:00 UTC
Severozápadní vítr 6 kt
Teplota 9°C
Vlhkost vzduchu 29%
Tlak 1024 hPa
Viditelnost 10 km a více
Žádná oblačnost pod 1500 m, nevyskytují se cumulonimby.

METAR: UKWW 041700Z 32003MPS CAVOK 09/M08 Q1024 NOSIG

Čas: 05:50 (02:50 UTC)

Předpověď počasí

Zpráva byla vytvořena před 12 hodinami a 45 minutami, v 14:05 UTC
Předpověď platná od 04 v 15 UTC do 04 v 24 UTC
vítr z různých směrů 2 kt
Viditelnost 10 km a více
Žádná oblačnost pod 1500 m, nevyskytují se cumulonimby.
Dočasný
od 04 v 15 UTC do 04 v 18 UTC
Severoseverozápadní vítr 10 kt s nárazy do 19 kt

TAF: UKWW 041405Z 0415/0424 VRB01MPS CAVOK TX12/0415Z TN03/0424Z TEMPO 0415/0418 34005G10MPS

Stav a předpovědi počasí z více než 4 000 letišť (zprávy METAR a TAF).

Červené a žluté tečky na mapě představují dostupné meteorologické stanice.

Když kurzor umístíte na tečku, zobrazí se název stanice.

Pak kliknutím zobrazíte stav a předpověď počasí.

Chcete-li změnit mapu, kliknutím na zelené tlačítko se znaménkem +mapu přiblížíte, kliknutím na zelené tlačítko se znaménkem – mapu oddálíte a kliknutím na zelené šipky přejdete na sousední mapy.


METAR-TAF: